sensor_id;sensor_type;location;lat;lon;timestamp;temperature;humidity
66422;DHT22;53228;51.380;0.098;2023-10-08T00:01:19;15.70;99.90
66422;DHT22;53228;51.380;0.098;2023-10-08T00:03:47;15.70;99.90
66422;DHT22;53228;51.380;0.098;2023-10-08T00:06:20;15.70;99.90
66422;DHT22;53228;51.380;0.098;2023-10-08T00:08:51;15.70;99.90
66422;DHT22;53228;51.380;0.098;2023-10-08T00:11:18;15.70;99.90
66422;DHT22;53228;51.380;0.098;2023-10-08T00:13:46;15.80;99.90
66422;DHT22;53228;51.380;0.098;2023-10-08T00:16:16;15.80;99.90
66422;DHT22;53228;51.380;0.098;2023-10-08T00:18:46;15.90;99.90
66422;DHT22;53228;51.380;0.098;2023-10-08T00:21:19;15.90;99.90
66422;DHT22;53228;51.380;0.098;2023-10-08T00:23:47;15.90;99.90
66422;DHT22;53228;51.380;0.098;2023-10-08T00:26:28;16.20;99.90
66422;DHT22;53228;51.380;0.098;2023-10-08T00:31:28;15.90;99.90
66422;DHT22;53228;51.380;0.098;2023-10-08T00:33:59;15.90;99.90
66422;DHT22;53228;51.380;0.098;2023-10-08T00:36:27;15.80;99.90
66422;DHT22;53228;51.380;0.098;2023-10-08T00:38:55;15.80;99.90
66422;DHT22;53228;51.380;0.098;2023-10-08T00:41:26;15.90;99.90
66422;DHT22;53228;51.380;0.098;2023-10-08T00:44:00;15.80;99.90
66422;DHT22;53228;51.380;0.098;2023-10-08T00:46:29;15.90;99.90
66422;DHT22;53228;51.380;0.098;2023-10-08T00:49:03;15.90;99.90
66422;DHT22;53228;51.380;0.098;2023-10-08T00:51:50;15.90;99.90
66422;DHT22;53228;51.380;0.098;2023-10-08T00:54:43;15.90;99.90
66422;DHT22;53228;51.380;0.098;2023-10-08T00:57:43;14.90;99.90
66422;DHT22;53228;51.380;0.098;2023-10-08T01:00:15;15.80;99.90
66422;DHT22;53228;51.380;0.098;2023-10-08T01:02:49;15.90;99.90
66422;DHT22;53228;51.380;0.098;2023-10-08T01:05:22;15.90;99.90
66422;DHT22;53228;51.380;0.098;2023-10-08T01:07:56;15.80;99.90
66422;DHT22;53228;51.380;0.098;2023-10-08T01:10:26;15.80;99.90
66422;DHT22;53228;51.380;0.098;2023-10-08T01:12:53;15.80;99.90
66422;DHT22;53228;51.380;0.098;2023-10-08T01:15:21;15.70;99.90
66422;DHT22;53228;51.380;0.098;2023-10-08T01:17:57;15.60;99.90
66422;DHT22;53228;51.380;0.098;2023-10-08T01:20:28;15.60;99.90
66422;DHT22;53228;51.380;0.098;2023-10-08T01:23:05;15.40;99.90
66422;DHT22;53228;51.380;0.098;2023-10-08T01:25:38;15.40;99.90
66422;DHT22;53228;51.380;0.098;2023-10-08T01:28:06;15.20;99.90
66422;DHT22;53228;51.380;0.098;2023-10-08T01:30:42;15.20;99.90
66422;DHT22;53228;51.380;0.098;2023-10-08T01:33:14;15.00;99.90
66422;DHT22;53228;51.380;0.098;2023-10-08T01:35:48;14.90;99.90
66422;DHT22;53228;51.380;0.098;2023-10-08T01:38:16;14.80;99.90
66422;DHT22;53228;51.380;0.098;2023-10-08T01:40:50;14.70;99.90
66422;DHT22;53228;51.380;0.098;2023-10-08T01:43:19;14.60;99.90
66422;DHT22;53228;51.380;0.098;2023-10-08T01:45:48;14.50;99.90
66422;DHT22;53228;51.380;0.098;2023-10-08T01:48:18;14.40;99.90
66422;DHT22;53228;51.380;0.098;2023-10-08T01:50:55;14.30;99.90
66422;DHT22;53228;51.380;0.098;2023-10-08T01:53:26;14.20;99.90
66422;DHT22;53228;51.380;0.098;2023-10-08T01:55:54;14.10;99.90
66422;DHT22;53228;51.380;0.098;2023-10-08T01:58:22;14.00;99.90
66422;DHT22;53228;51.380;0.098;2023-10-08T02:00:53;13.30;99.90
66422;DHT22;53228;51.380;0.098;2023-10-08T02:03:26;13.90;99.90
66422;DHT22;53228;51.380;0.098;2023-10-08T02:05:57;13.80;99.90
66422;DHT22;53228;51.380;0.098;2023-10-08T02:08:27;13.80;99.90
66422;DHT22;53228;51.380;0.098;2023-10-08T02:10:55;13.70;99.90
66422;DHT22;53228;51.380;0.098;2023-10-08T02:13:23;13.70;99.90
66422;DHT22;53228;51.380;0.098;2023-10-08T02:15:52;13.60;99.90
66422;DHT22;53228;51.380;0.098;2023-10-08T02:18:20;13.50;99.90
66422;DHT22;53228;51.380;0.098;2023-10-08T02:20:51;13.50;99.90
66422;DHT22;53228;51.380;0.098;2023-10-08T02:23:20;13.50;99.90
66422;DHT22;53228;51.380;0.098;2023-10-08T02:25:48;12.70;99.90
66422;DHT22;53228;51.380;0.098;2023-10-08T02:28:16;13.40;99.90
66422;DHT22;53228;51.380;0.098;2023-10-08T02:30:47;14.70;99.90
66422;DHT22;53228;51.380;0.098;2023-10-08T02:33:15;13.30;99.90
66422;DHT22;53228;51.380;0.098;2023-10-08T02:35:45;13.40;99.90
66422;DHT22;53228;51.380;0.098;2023-10-08T02:38:16;13.40;99.90
66422;DHT22;53228;51.380;0.098;2023-10-08T02:40:45;13.30;99.90
66422;DHT22;53228;51.380;0.098;2023-10-08T02:43:16;13.20;99.90
66422;DHT22;53228;51.380;0.098;2023-10-08T02:45:45;13.20;99.90
66422;DHT22;53228;51.380;0.098;2023-10-08T02:48:18;13.20;99.90
66422;DHT22;53228;51.380;0.098;2023-10-08T02:50:48;13.20;99.90
66422;DHT22;53228;51.380;0.098;2023-10-08T02:53:16;13.20;99.90
66422;DHT22;53228;51.380;0.098;2023-10-08T02:55:48;13.20;99.90
66422;DHT22;53228;51.380;0.098;2023-10-08T02:58:17;13.10;99.90
66422;DHT22;53228;51.380;0.098;2023-10-08T03:00:49;13.20;99.90
66422;DHT22;53228;51.380;0.098;2023-10-08T03:03:17;13.10;99.90
66422;DHT22;53228;51.380;0.098;2023-10-08T03:05:51;13.10;99.90
66422;DHT22;53228;51.380;0.098;2023-10-08T03:08:20;13.00;99.90
66422;DHT22;53228;51.380;0.098;2023-10-08T03:10:53;13.00;99.90
66422;DHT22;53228;51.380;0.098;2023-10-08T03:13:24;13.00;99.90
66422;DHT22;53228;51.380;0.098;2023-10-08T03:15:54;11.70;99.90
66422;DHT22;53228;51.380;0.098;2023-10-08T03:18:36;12.90;99.90
66422;DHT22;53228;51.380;0.098;2023-10-08T03:21:06;12.90;99.90
66422;DHT22;53228;51.380;0.098;2023-10-08T03:23:51;12.90;99.90
66422;DHT22;53228;51.380;0.098;2023-10-08T03:26:20;12.80;99.90
66422;DHT22;53228;51.380;0.098;2023-10-08T03:28:57;12.80;99.90
66422;DHT22;53228;51.380;0.098;2023-10-08T03:31:27;12.80;99.90
66422;DHT22;53228;51.380;0.098;2023-10-08T03:34:16;12.70;99.90
66422;DHT22;53228;51.380;0.098;2023-10-08T03:36:47;12.70;99.90
66422;DHT22;53228;51.380;0.098;2023-10-08T03:39:17;12.70;99.90
66422;DHT22;53228;51.380;0.098;2023-10-08T03:41:47;12.70;99.90
66422;DHT22;53228;51.380;0.098;2023-10-08T03:44:33;12.60;99.90
66422;DHT22;53228;51.380;0.098;2023-10-08T03:47:05;12.70;99.90
66422;DHT22;53228;51.380;0.098;2023-10-08T03:49:39;11.10;99.90
66422;DHT22;53228;51.380;0.098;2023-10-08T03:52:13;12.60;99.90
66422;DHT22;53228;51.380;0.098;2023-10-08T03:54:41;12.60;99.90
66422;DHT22;53228;51.380;0.098;2023-10-08T03:57:16;12.20;99.90
66422;DHT22;53228;51.380;0.098;2023-10-08T03:59:53;12.60;99.90
66422;DHT22;53228;51.380;0.098;2023-10-08T04:02:26;12.60;99.90
66422;DHT22;53228;51.380;0.098;2023-10-08T04:05:08;12.50;99.90
66422;DHT22;53228;51.380;0.098;2023-10-08T04:07:47;12.50;99.90
66422;DHT22;53228;51.380;0.098;2023-10-08T04:10:31;12.50;99.90
66422;DHT22;53228;51.380;0.098;2023-10-08T04:13:05;12.50;99.90
66422;DHT22;53228;51.380;0.098;2023-10-08T04:15:43;12.50;99.90
66422;DHT22;53228;51.380;0.098;2023-10-08T04:18:11;12.50;99.90
66422;DHT22;53228;51.380;0.098;2023-10-08T04:20:41;12.40;99.90
66422;DHT22;53228;51.380;0.098;2023-10-08T04:23:28;12.50;99.90
66422;DHT22;53228;51.380;0.098;2023-10-08T04:25:57;12.50;99.90
66422;DHT22;53228;51.380;0.098;2023-10-08T04:28:25;12.40;99.90
66422;DHT22;53228;51.380;0.098;2023-10-08T04:30:56;12.40;99.90
66422;DHT22;53228;51.380;0.098;2023-10-08T04:33:29;12.40;99.90
66422;DHT22;53228;51.380;0.098;2023-10-08T04:36:02;12.40;99.90
66422;DHT22;53228;51.380;0.098;2023-10-08T04:38:29;12.30;99.90
66422;DHT22;53228;51.380;0.098;2023-10-08T04:41:04;12.30;99.90
66422;DHT22;53228;51.380;0.098;2023-10-08T04:43:36;12.20;99.90
66422;DHT22;53228;51.380;0.098;2023-10-08T04:46:10;12.30;99.90
66422;DHT22;53228;51.380;0.098;2023-10-08T04:49:06;12.20;99.90
66422;DHT22;53228;51.380;0.098;2023-10-08T04:51:46;12.20;99.90
66422;DHT22;53228;51.380;0.098;2023-10-08T04:54:16;12.10;99.90
66422;DHT22;53228;51.380;0.098;2023-10-08T04:56:44;12.10;99.90
66422;DHT22;53228;51.380;0.098;2023-10-08T04:59:12;12.00;99.90
66422;DHT22;53228;51.380;0.098;2023-10-08T05:01:40;12.00;99.90
66422;DHT22;53228;51.380;0.098;2023-10-08T05:04:15;11.90;99.90
66422;DHT22;53228;51.380;0.098;2023-10-08T05:06:58;11.80;99.90
66422;DHT22;53228;51.380;0.098;2023-10-08T05:09:45;11.80;99.90
66422;DHT22;53228;51.380;0.098;2023-10-08T05:12:19;11.80;99.90
66422;DHT22;53228;51.380;0.098;2023-10-08T05:15:02;11.80;99.90
66422;DHT22;53228;51.380;0.098;2023-10-08T05:17:46;11.70;99.90
66422;DHT22;53228;51.380;0.098;2023-10-08T05:20:18;11.70;99.90
66422;DHT22;53228;51.380;0.098;2023-10-08T05:23:09;11.70;99.90
66422;DHT22;53228;51.380;0.098;2023-10-08T05:25:53;11.60;99.90
66422;DHT22;53228;51.380;0.098;2023-10-08T05:28:37;11.60;99.90
66422;DHT22;53228;51.380;0.098;2023-10-08T05:31:29;11.60;99.90
66422;DHT22;53228;51.380;0.098;2023-10-08T05:34:14;11.60;99.90
66422;DHT22;53228;51.380;0.098;2023-10-08T05:36:44;11.60;99.90
66422;DHT22;53228;51.380;0.098;2023-10-08T05:39:27;11.60;99.90
66422;DHT22;53228;51.380;0.098;2023-10-08T05:42:08;11.60;99.90
66422;DHT22;53228;51.380;0.098;2023-10-08T05:44:47;11.60;99.90
66422;DHT22;53228;51.380;0.098;2023-10-08T05:47:34;11.60;99.90
66422;DHT22;53228;51.380;0.098;2023-10-08T05:50:03;11.60;99.90
66422;DHT22;53228;51.380;0.098;2023-10-08T05:52:48;11.50;99.90
66422;DHT22;53228;51.380;0.098;2023-10-08T05:55:20;11.50;99.90
66422;DHT22;53228;51.380;0.098;2023-10-08T05:57:58;11.50;99.90
66422;DHT22;53228;51.380;0.098;2023-10-08T06:00:47;11.50;99.90
66422;DHT22;53228;51.380;0.098;2023-10-08T06:03:18;11.50;99.90
66422;DHT22;53228;51.380;0.098;2023-10-08T06:06:05;11.50;99.90
66422;DHT22;53228;51.380;0.098;2023-10-08T06:08:39;11.50;99.90
66422;DHT22;53228;51.380;0.098;2023-10-08T06:11:20;11.50;99.90
66422;DHT22;53228;51.380;0.098;2023-10-08T06:14:06;11.50;99.90
66422;DHT22;53228;51.380;0.098;2023-10-08T06:17:04;11.50;99.90
66422;DHT22;53228;51.380;0.098;2023-10-08T06:19:50;11.50;99.90
66422;DHT22;53228;51.380;0.098;2023-10-08T06:22:20;11.40;99.90
66422;DHT22;53228;51.380;0.098;2023-10-08T06:24:53;11.40;99.90
66422;DHT22;53228;51.380;0.098;2023-10-08T06:27:40;11.40;99.90
66422;DHT22;53228;51.380;0.098;2023-10-08T06:30:09;11.40;99.90
66422;DHT22;53228;51.380;0.098;2023-10-08T06:32:44;11.40;99.90
66422;DHT22;53228;51.380;0.098;2023-10-08T06:35:12;11.40;99.90
66422;DHT22;53228;51.380;0.098;2023-10-08T06:37:45;11.40;99.90
66422;DHT22;53228;51.380;0.098;2023-10-08T06:40:16;11.40;99.90
66422;DHT22;53228;51.380;0.098;2023-10-08T06:43:03;11.40;99.90
66422;DHT22;53228;51.380;0.098;2023-10-08T06:45:44;10.30;99.90
66422;DHT22;53228;51.380;0.098;2023-10-08T06:48:13;11.50;99.90
66422;DHT22;53228;51.380;0.098;2023-10-08T06:50:50;11.50;99.90
66422;DHT22;53228;51.380;0.098;2023-10-08T06:53:19;11.60;99.90
66422;DHT22;53228;51.380;0.098;2023-10-08T06:55:46;11.60;99.90
66422;DHT22;53228;51.380;0.098;2023-10-08T06:58:15;11.60;99.90
66422;DHT22;53228;51.380;0.098;2023-10-08T07:00:44;11.60;99.90
66422;DHT22;53228;51.380;0.098;2023-10-08T07:03:17;11.70;99.90
66422;DHT22;53228;51.380;0.098;2023-10-08T07:05:49;11.80;99.90
66422;DHT22;53228;51.380;0.098;2023-10-08T07:08:30;11.20;99.90
66422;DHT22;53228;51.380;0.098;2023-10-08T07:11:01;11.90;99.90
66422;DHT22;53228;51.380;0.098;2023-10-08T07:13:33;11.30;99.90
66422;DHT22;53228;51.380;0.098;2023-10-08T07:16:03;12.00;99.90
66422;DHT22;53228;51.380;0.098;2023-10-08T07:18:32;12.00;99.90
66422;DHT22;53228;51.380;0.098;2023-10-08T07:21:02;12.10;99.90
66422;DHT22;53228;51.380;0.098;2023-10-08T07:23:41;12.10;99.90
66422;DHT22;53228;51.380;0.098;2023-10-08T07:26:25;12.20;99.90
66422;DHT22;53228;51.380;0.098;2023-10-08T07:28:53;12.30;99.90
66422;DHT22;53228;51.380;0.098;2023-10-08T07:31:22;12.30;99.90
66422;DHT22;53228;51.380;0.098;2023-10-08T07:33:53;12.40;99.90
66422;DHT22;53228;51.380;0.098;2023-10-08T07:36:25;12.50;99.90
66422;DHT22;53228;51.380;0.098;2023-10-08T07:38:54;12.50;99.90
66422;DHT22;53228;51.380;0.098;2023-10-08T07:41:22;12.60;99.90
66422;DHT22;53228;51.380;0.098;2023-10-08T07:43:50;12.70;99.90
66422;DHT22;53228;51.380;0.098;2023-10-08T07:46:25;12.80;99.90
66422;DHT22;53228;51.380;0.098;2023-10-08T07:48:56;12.90;99.90
66422;DHT22;53228;51.380;0.098;2023-10-08T07:51:27;12.90;99.90
66422;DHT22;53228;51.380;0.098;2023-10-08T07:53:54;13.00;99.90
66422;DHT22;53228;51.380;0.098;2023-10-08T07:56:25;13.10;99.90
66422;DHT22;53228;51.380;0.098;2023-10-08T07:58:53;13.20;99.90
66422;DHT22;53228;51.380;0.098;2023-10-08T08:01:24;13.30;99.90
66422;DHT22;53228;51.380;0.098;2023-10-08T08:03:54;13.40;99.90
66422;DHT22;53228;51.380;0.098;2023-10-08T08:06:25;15.00;99.90
66422;DHT22;53228;51.380;0.098;2023-10-08T08:08:53;13.60;99.90
66422;DHT22;53228;51.380;0.098;2023-10-08T08:11:22;13.70;99.90
66422;DHT22;53228;51.380;0.098;2023-10-08T08:13:53;13.80;99.90
66422;DHT22;53228;51.380;0.098;2023-10-08T08:16:21;14.00;99.90
66422;DHT22;53228;51.380;0.098;2023-10-08T08:18:53;14.10;99.90
66422;DHT22;53228;51.380;0.098;2023-10-08T08:21:24;14.20;99.90
66422;DHT22;53228;51.380;0.098;2023-10-08T08:23:53;14.30;99.90
66422;DHT22;53228;51.380;0.098;2023-10-08T08:26:32;14.40;99.90
66422;DHT22;53228;51.380;0.098;2023-10-08T08:29:07;14.40;99.90
66422;DHT22;53228;51.380;0.098;2023-10-08T08:31:36;14.50;99.90
66422;DHT22;53228;51.380;0.098;2023-10-08T08:34:06;14.90;99.90
66422;DHT22;53228;51.380;0.098;2023-10-08T08:36:41;14.80;99.90
66422;DHT22;53228;51.380;0.098;2023-10-08T08:39:16;14.90;99.90
66422;DHT22;53228;51.380;0.098;2023-10-08T08:41:59;15.00;99.90
66422;DHT22;53228;51.380;0.098;2023-10-08T08:44:28;15.00;99.90
66422;DHT22;53228;51.380;0.098;2023-10-08T08:47:00;15.10;99.90
66422;DHT22;53228;51.380;0.098;2023-10-08T08:49:36;15.30;99.90
66422;DHT22;53228;51.380;0.098;2023-10-08T08:52:05;15.40;99.90
66422;DHT22;53228;51.380;0.098;2023-10-08T08:54:32;15.50;99.90
66422;DHT22;53228;51.380;0.098;2023-10-08T08:57:03;15.70;99.90
66422;DHT22;53228;51.380;0.098;2023-10-08T08:59:50;15.80;99.90
66422;DHT22;53228;51.380;0.098;2023-10-08T09:02:20;15.90;99.90
66422;DHT22;53228;51.380;0.098;2023-10-08T09:04:48;16.00;99.90
66422;DHT22;53228;51.380;0.098;2023-10-08T09:07:20;16.10;99.90
66422;DHT22;53228;51.380;0.098;2023-10-08T09:09:49;16.30;99.90
66422;DHT22;53228;51.380;0.098;2023-10-08T09:12:17;16.40;99.90
66422;DHT22;53228;51.380;0.098;2023-10-08T09:14:46;16.50;99.90
66422;DHT22;53228;51.380;0.098;2023-10-08T09:17:13;16.60;99.90
66422;DHT22;53228;51.380;0.098;2023-10-08T09:19:45;16.70;99.90
66422;DHT22;53228;51.380;0.098;2023-10-08T09:22:13;16.90;99.90
66422;DHT22;53228;51.380;0.098;2023-10-08T09:24:42;17.20;99.90
66422;DHT22;53228;51.380;0.098;2023-10-08T09:27:11;17.50;99.90
66422;DHT22;53228;51.380;0.098;2023-10-08T09:29:42;17.90;99.90
66422;DHT22;53228;51.380;0.098;2023-10-08T10:48:10;24.30;99.90
66422;DHT22;53228;51.380;0.098;2023-10-08T10:50:51;24.40;99.90
66422;DHT22;53228;51.380;0.098;2023-10-08T10:53:36;24.90;99.90
66422;DHT22;53228;51.380;0.098;2023-10-08T10:56:25;25.70;99.90
66422;DHT22;53228;51.380;0.098;2023-10-08T10:59:01;26.00;99.90
66422;DHT22;53228;51.380;0.098;2023-10-08T11:01:47;26.60;99.90
66422;DHT22;53228;51.380;0.098;2023-10-08T11:04:19;27.10;99.90
66422;DHT22;53228;51.380;0.098;2023-10-08T11:06:57;27.50;99.90
66422;DHT22;53228;51.380;0.098;2023-10-08T11:09:27;28.20;99.90
66422;DHT22;53228;51.380;0.098;2023-10-08T11:12:08;28.70;99.90
66422;DHT22;53228;51.380;0.098;2023-10-08T11:14:39;28.80;99.90
66422;DHT22;53228;51.380;0.098;2023-10-08T11:17:18;29.00;99.90
66422;DHT22;53228;51.380;0.098;2023-10-08T11:19:52;28.90;99.90
66422;DHT22;53228;51.380;0.098;2023-10-08T11:22:21;29.10;99.90
66422;DHT22;53228;51.380;0.098;2023-10-08T11:24:50;29.20;99.90
66422;DHT22;53228;51.380;0.098;2023-10-08T11:27:21;29.40;99.90
66422;DHT22;53228;51.380;0.098;2023-10-08T11:30:05;29.40;99.90
66422;DHT22;53228;51.380;0.098;2023-10-08T11:32:39;29.20;99.90
66422;DHT22;53228;51.380;0.098;2023-10-08T11:35:14;29.20;99.90
66422;DHT22;53228;51.380;0.098;2023-10-08T11:37:47;29.20;99.90
66422;DHT22;53228;51.380;0.098;2023-10-08T11:40:25;29.40;99.90
66422;DHT22;53228;51.380;0.098;2023-10-08T11:43:00;29.40;99.90
66422;DHT22;53228;51.380;0.098;2023-10-08T11:45:31;29.30;99.90
66422;DHT22;53228;51.380;0.098;2023-10-08T11:48:06;29.00;99.90
66422;DHT22;53228;51.380;0.098;2023-10-08T11:55:40;29.00;99.90
66422;DHT22;53228;51.380;0.098;2023-10-08T11:58:15;29.00;99.70
66422;DHT22;53228;51.380;0.098;2023-10-08T12:00:47;28.70;99.60
66422;DHT22;53228;51.380;0.098;2023-10-08T12:33:37;24.40;99.90
66422;DHT22;53228;51.380;0.098;2023-10-08T12:36:05;24.10;99.90
66422;DHT22;53228;51.380;0.098;2023-10-08T12:59:07;24.00;99.90
66422;DHT22;53228;51.380;0.098;2023-10-08T13:01:35;23.40;99.90
66422;DHT22;53228;51.380;0.098;2023-10-08T13:04:04;23.40;99.90
66422;DHT22;53228;51.380;0.098;2023-10-08T13:06:43;23.30;99.90
66422;DHT22;53228;51.380;0.098;2023-10-08T13:09:13;23.30;99.90
66422;DHT22;53228;51.380;0.098;2023-10-08T13:11:41;23.30;99.90
66422;DHT22;53228;51.380;0.098;2023-10-08T13:14:10;23.20;99.90
66422;DHT22;53228;51.380;0.098;2023-10-08T13:16:39;23.10;99.90
66422;DHT22;53228;51.380;0.098;2023-10-08T13:19:07;23.00;99.90
66422;DHT22;53228;51.380;0.098;2023-10-08T13:21:36;22.90;99.90
66422;DHT22;53228;51.380;0.098;2023-10-08T13:24:05;22.90;99.90
66422;DHT22;53228;51.380;0.098;2023-10-08T13:26:37;23.00;99.90
66422;DHT22;53228;51.380;0.098;2023-10-08T13:29:06;23.00;99.90
66422;DHT22;53228;51.380;0.098;2023-10-08T13:31:34;23.10;99.90
66422;DHT22;53228;51.380;0.098;2023-10-08T13:34:05;23.10;99.90
66422;DHT22;53228;51.380;0.098;2023-10-08T13:36:36;23.10;99.90
66422;DHT22;53228;51.380;0.098;2023-10-08T13:39:07;23.20;99.90
66422;DHT22;53228;51.380;0.098;2023-10-08T13:41:37;23.10;99.90
66422;DHT22;53228;51.380;0.098;2023-10-08T13:44:09;23.10;99.90
66422;DHT22;53228;51.380;0.098;2023-10-08T13:46:40;22.70;99.90
66422;DHT22;53228;51.380;0.098;2023-10-08T13:49:17;22.80;99.90
66422;DHT22;53228;51.380;0.098;2023-10-08T13:51:46;22.80;99.90
66422;DHT22;53228;51.380;0.098;2023-10-08T13:54:17;22.80;99.90
66422;DHT22;53228;51.380;0.098;2023-10-08T13:56:48;22.80;99.90
66422;DHT22;53228;51.380;0.098;2023-10-08T13:59:16;22.70;99.90
66422;DHT22;53228;51.380;0.098;2023-10-08T14:01:45;22.70;99.90
66422;DHT22;53228;51.380;0.098;2023-10-08T14:04:20;22.60;99.90
66422;DHT22;53228;51.380;0.098;2023-10-08T14:06:48;22.60;99.90
66422;DHT22;53228;51.380;0.098;2023-10-08T14:09:21;22.70;99.90
66422;DHT22;53228;51.380;0.098;2023-10-08T14:12:05;22.70;99.90
66422;DHT22;53228;51.380;0.098;2023-10-08T14:14:38;22.60;99.90
66422;DHT22;53228;51.380;0.098;2023-10-08T14:17:11;22.60;99.90
66422;DHT22;53228;51.380;0.098;2023-10-08T14:19:43;22.60;99.90
66422;DHT22;53228;51.380;0.098;2023-10-08T14:22:14;22.60;99.90
66422;DHT22;53228;51.380;0.098;2023-10-08T14:24:43;22.60;99.90
66422;DHT22;53228;51.380;0.098;2023-10-08T14:27:14;22.60;99.90
66422;DHT22;53228;51.380;0.098;2023-10-08T14:29:44;22.60;99.90
66422;DHT22;53228;51.380;0.098;2023-10-08T14:32:14;22.60;99.90
66422;DHT22;53228;51.380;0.098;2023-10-08T14:34:44;22.60;99.90
66422;DHT22;53228;51.380;0.098;2023-10-08T14:37:15;22.60;99.90
66422;DHT22;53228;51.380;0.098;2023-10-08T14:40:02;22.60;99.90
66422;DHT22;53228;51.380;0.098;2023-10-08T14:42:48;22.60;99.90
66422;DHT22;53228;51.380;0.098;2023-10-08T14:45:33;22.50;99.90
66422;DHT22;53228;51.380;0.098;2023-10-08T14:48:06;22.50;99.90
66422;DHT22;53228;51.380;0.098;2023-10-08T14:50:39;21.80;99.90
66422;DHT22;53228;51.380;0.098;2023-10-08T14:53:08;22.50;99.90
66422;DHT22;53228;51.380;0.098;2023-10-08T14:55:36;21.90;99.90
66422;DHT22;53228;51.380;0.098;2023-10-08T14:58:06;22.50;99.90
66422;DHT22;53228;51.380;0.098;2023-10-08T15:00:38;22.50;99.90
66422;DHT22;53228;51.380;0.098;2023-10-08T15:03:07;22.40;99.90
66422;DHT22;53228;51.380;0.098;2023-10-08T15:05:36;22.30;99.90
66422;DHT22;53228;51.380;0.098;2023-10-08T15:08:06;22.20;99.90
66422;DHT22;53228;51.380;0.098;2023-10-08T15:10:38;22.10;99.90
66422;DHT22;53228;51.380;0.098;2023-10-08T15:13:06;22.00;99.90
66422;DHT22;53228;51.380;0.098;2023-10-08T15:15:35;22.00;99.90
66422;DHT22;53228;51.380;0.098;2023-10-08T15:18:03;21.90;99.90
66422;DHT22;53228;51.380;0.098;2023-10-08T15:20:31;21.90;99.90
66422;DHT22;53228;51.380;0.098;2023-10-08T15:23:00;21.80;99.90
66422;DHT22;53228;51.380;0.098;2023-10-08T15:25:28;21.80;99.90
66422;DHT22;53228;51.380;0.098;2023-10-08T15:27:56;21.70;99.90
66422;DHT22;53228;51.380;0.098;2023-10-08T15:30:24;21.70;99.90
66422;DHT22;53228;51.380;0.098;2023-10-08T15:32:53;21.70;99.90
66422;DHT22;53228;51.380;0.098;2023-10-08T15:35:22;21.70;99.90
66422;DHT22;53228;51.380;0.098;2023-10-08T15:37:52;21.70;99.90
66422;DHT22;53228;51.380;0.098;2023-10-08T15:40:22;21.70;99.90
66422;DHT22;53228;51.380;0.098;2023-10-08T15:42:52;21.70;99.90
66422;DHT22;53228;51.380;0.098;2023-10-08T15:45:21;21.60;99.90
66422;DHT22;53228;51.380;0.098;2023-10-08T15:47:49;21.60;99.90
66422;DHT22;53228;51.380;0.098;2023-10-08T15:50:20;21.60;99.90
66422;DHT22;53228;51.380;0.098;2023-10-08T15:52:49;21.60;99.90
66422;DHT22;53228;51.380;0.098;2023-10-08T15:55:17;21.50;99.90
66422;DHT22;53228;51.380;0.098;2023-10-08T15:57:46;21.50;99.90
66422;DHT22;53228;51.380;0.098;2023-10-08T16:00:14;21.50;99.90
66422;DHT22;53228;51.380;0.098;2023-10-08T16:02:42;21.40;99.90
66422;DHT22;53228;51.380;0.098;2023-10-08T16:05:12;21.40;99.90
66422;DHT22;53228;51.380;0.098;2023-10-08T16:07:45;21.30;99.90
66422;DHT22;53228;51.380;0.098;2023-10-08T16:10:13;21.20;99.90
66422;DHT22;53228;51.380;0.098;2023-10-08T16:12:41;21.10;99.90
66422;DHT22;53228;51.380;0.098;2023-10-08T16:15:09;21.00;99.90
66422;DHT22;53228;51.380;0.098;2023-10-08T16:17:37;20.90;99.90
66422;DHT22;53228;51.380;0.098;2023-10-08T16:20:07;20.80;99.90
66422;DHT22;53228;51.380;0.098;2023-10-08T16:22:45;20.80;99.90
66422;DHT22;53228;51.380;0.098;2023-10-08T16:25:18;20.60;99.90
66422;DHT22;53228;51.380;0.098;2023-10-08T16:27:51;20.50;99.90
66422;DHT22;53228;51.380;0.098;2023-10-08T16:30:23;20.40;99.90
66422;DHT22;53228;51.380;0.098;2023-10-08T16:32:52;20.40;99.90
66422;DHT22;53228;51.380;0.098;2023-10-08T16:35:21;20.30;99.90
66422;DHT22;53228;51.380;0.098;2023-10-08T16:37:49;19.80;99.90
66422;DHT22;53228;51.380;0.098;2023-10-08T16:40:16;20.10;99.90
66422;DHT22;53228;51.380;0.098;2023-10-08T16:42:48;20.10;99.90
66422;DHT22;53228;51.380;0.098;2023-10-08T16:45:17;19.90;99.90
66422;DHT22;53228;51.380;0.098;2023-10-08T16:47:49;19.90;99.90
66422;DHT22;53228;51.380;0.098;2023-10-08T16:50:20;19.80;99.90
66422;DHT22;53228;51.380;0.098;2023-10-08T16:52:47;19.70;99.90
66422;DHT22;53228;51.380;0.098;2023-10-08T16:55:16;19.60;99.90
66422;DHT22;53228;51.380;0.098;2023-10-08T16:57:44;19.40;99.90
66422;DHT22;53228;51.380;0.098;2023-10-08T17:00:12;19.30;99.90
66422;DHT22;53228;51.380;0.098;2023-10-08T17:02:40;19.20;99.90
66422;DHT22;53228;51.380;0.098;2023-10-08T17:05:10;19.10;99.90
66422;DHT22;53228;51.380;0.098;2023-10-08T17:07:43;18.90;99.90
66422;DHT22;53228;51.380;0.098;2023-10-08T17:10:13;18.90;99.90
66422;DHT22;53228;51.380;0.098;2023-10-08T17:12:41;18.70;99.90
66422;DHT22;53228;51.380;0.098;2023-10-08T17:15:09;18.70;99.90
66422;DHT22;53228;51.380;0.098;2023-10-08T17:17:38;18.60;99.90
66422;DHT22;53228;51.380;0.098;2023-10-08T17:20:06;18.50;99.90
66422;DHT22;53228;51.380;0.098;2023-10-08T17:22:37;18.40;99.90
66422;DHT22;53228;51.380;0.098;2023-10-08T17:25:05;18.30;99.90
66422;DHT22;53228;51.380;0.098;2023-10-08T17:27:34;18.20;99.90
66422;DHT22;53228;51.380;0.098;2023-10-08T17:30:03;18.20;99.90
66422;DHT22;53228;51.380;0.098;2023-10-08T17:32:34;18.20;99.90
66422;DHT22;53228;51.380;0.098;2023-10-08T17:35:03;18.10;99.90
66422;DHT22;53228;51.380;0.098;2023-10-08T17:37:34;18.00;99.90
66422;DHT22;53228;51.380;0.098;2023-10-08T17:40:05;18.00;99.90
66422;DHT22;53228;51.380;0.098;2023-10-08T17:42:39;18.00;99.90
66422;DHT22;53228;51.380;0.098;2023-10-08T17:45:08;18.70;99.90
66422;DHT22;53228;51.380;0.098;2023-10-08T17:47:42;18.00;99.90
66422;DHT22;53228;51.380;0.098;2023-10-08T17:50:11;18.00;99.90
66422;DHT22;53228;51.380;0.098;2023-10-08T17:52:38;18.00;99.90
66422;DHT22;53228;51.380;0.098;2023-10-08T17:55:06;18.10;99.90
66422;DHT22;53228;51.380;0.098;2023-10-08T17:57:39;18.00;99.90
66422;DHT22;53228;51.380;0.098;2023-10-08T18:00:09;18.00;99.90
66422;DHT22;53228;51.380;0.098;2023-10-08T18:02:39;18.00;99.90
66422;DHT22;53228;51.380;0.098;2023-10-08T18:05:10;18.00;99.90
66422;DHT22;53228;51.380;0.098;2023-10-08T18:07:45;18.00;99.90
66422;DHT22;53228;51.380;0.098;2023-10-08T18:10:13;18.00;99.90
66422;DHT22;53228;51.380;0.098;2023-10-08T18:12:44;18.00;99.90
66422;DHT22;53228;51.380;0.098;2023-10-08T18:15:12;18.00;99.90
66422;DHT22;53228;51.380;0.098;2023-10-08T18:17:44;18.00;99.90